Time;durP1;ratioP1;P1;durP2;ratioP2;P2;SDS_P1;SDS_P2;PMS_P1;PMS_P2;Temp;Humidity;BMP_temperature;BMP_pressure;BME280_temperature;BME280_humidity;BME280_pressure;Samples;Min_cycle;Max_cycle;Signal;HPM_P1;HPM_P2
2021/01/07 00:00:15;;;;;;;7.53;4.75;;;2.30;99.90;;;;;;6341494;22;20101;-77
2021/01/07 00:02:42;;;;;;;8.00;4.65;;;2.20;99.90;;;;;;6340201;22;20019;-77
2021/01/07 00:05:09;;;;;;;7.47;4.72;;;2.30;99.90;;;;;;6341326;22;20456;-77
2021/01/07 00:07:36;;;;;;;8.10;4.85;;;2.30;99.90;;;;;;6340368;22;20147;-77
2021/01/07 00:10:05;;;;;;;6.40;4.03;;;2.30;99.90;;;;;;6341345;22;20019;-77
2021/01/07 00:12:32;;;;;;;7.38;4.25;;;2.30;99.90;;;;;;6345256;22;20099;-77
2021/01/07 00:14:59;;;;;;;7.50;4.38;;;2.30;99.90;;;;;;6345087;22;20097;-77
2021/01/07 00:17:26;;;;;;;7.40;4.72;;;2.30;99.90;;;;;;6345461;22;20106;-77
2021/01/07 00:19:53;;;;;;;7.28;4.35;;;2.30;99.90;;;;;;6344006;22;20512;-77
2021/01/07 00:22:19;;;;;;;7.28;4.50;;;2.30;99.90;;;;;;6343905;22;20049;-77
2021/01/07 00:24:46;;;;;;;7.70;4.90;;;2.20;99.90;;;;;;6344096;22;20054;-77
2021/01/07 00:27:13;;;;;;;6.65;4.18;;;2.30;99.90;;;;;;6342087;22;20099;-77
2021/01/07 00:29:40;;;;;;;8.07;4.40;;;2.40;99.90;;;;;;6342231;22;20581;-77
2021/01/07 00:32:07;;;;;;;6.70;4.32;;;2.50;99.90;;;;;;6342648;22;20067;-77
2021/01/07 00:34:34;;;;;;;7.25;4.25;;;2.40;99.90;;;;;;6341398;22;20018;-77
2021/01/07 00:37:00;;;;;;;6.60;4.18;;;2.50;99.90;;;;;;6340550;22;20046;-77
2021/01/07 00:39:27;;;;;;;7.10;4.10;;;2.50;99.90;;;;;;6340833;22;20074;-77
2021/01/07 00:41:56;;;;;;;7.13;4.15;;;2.50;99.90;;;;;;6344569;22;20050;-77
2021/01/07 00:44:22;;;;;;;6.70;4.43;;;2.40;99.90;;;;;;6344109;22;20197;-78
2021/01/07 00:46:51;;;;;;;6.43;4.07;;;2.40;99.90;;;;;;6344468;22;20068;-78
2021/01/07 00:49:18;;;;;;;7.85;4.82;;;2.30;99.90;;;;;;6350119;22;20079;-78
2021/01/07 00:51:46;;;;;;;7.32;4.50;;;2.30;99.90;;;;;;6315241;22;20048;-78
2021/01/07 00:54:13;;;;;;;7.53;4.60;;;2.20;99.90;;;;;;6342341;22;20025;-77
2021/01/07 00:56:40;;;;;;;7.03;4.22;;;2.30;99.90;;;;;;6343111;22;20091;-77
2021/01/07 00:59:07;;;;;;;7.03;4.45;;;2.40;99.90;;;;;;6343657;22;20137;-77
2021/01/07 01:01:42;;;;;;;6.75;4.13;;;2.30;99.90;;;;;;6341789;22;20084;-77
2021/01/07 01:04:10;;;;;;;;;;;2.30;99.90;;;;;;6343685;22;20090;-77
2021/01/07 01:06:36;;;;;;;8.13;4.50;;;2.30;99.90;;;;;;6341927;22;19954;-77
2021/01/07 01:09:05;;;;;;;8.95;4.93;;;2.30;99.90;;;;;;6342174;22;20148;-77
2021/01/07 01:11:38;;;;;;;7.00;4.53;;;2.30;99.90;;;;;;6339533;22;20018;-78
2021/01/07 01:14:05;;;;;;;8.32;4.75;;;2.30;99.90;;;;;;6338652;22;20094;-78
2021/01/07 01:16:32;;;;;;;7.35;4.45;;;2.30;99.90;;;;;;6341354;22;20047;-78
2021/01/07 01:18:59;;;;;;;7.97;4.70;;;2.20;99.90;;;;;;6340580;22;20018;-78
2021/01/07 01:21:27;;;;;;;8.30;5.13;;;2.30;99.90;;;;;;6339861;22;20029;-78
2021/01/07 01:23:54;;;;;;;7.93;4.75;;;2.30;99.90;;;;;;6341686;22;20102;-78
2021/01/07 01:26:21;;;;;;;7.22;4.65;;;2.30;99.90;;;;;;6342915;22;20066;-78
2021/01/07 01:28:47;;;;;;;8.65;4.93;;;2.30;99.90;;;;;;6343625;22;20038;-78
2021/01/07 01:31:14;;;;;;;9.63;5.35;;;2.30;99.90;;;;;;6341719;22;20093;-78
2021/01/07 01:33:40;;;;;;;8.65;5.22;;;2.20;99.90;;;;;;6341177;22;20845;-78
2021/01/07 01:36:08;;;;;;;8.65;5.10;;;2.20;99.90;;;;;;6339533;22;20033;-78
2021/01/07 01:38:36;;;;;;;9.27;5.57;;;2.20;99.90;;;;;;6341153;22;20079;-78
2021/01/07 01:41:03;;;;;;;7.95;5.13;;;2.20;99.90;;;;;;6342269;22;20054;-78
2021/01/07 01:43:30;;;;;;;9.02;5.03;;;2.20;99.90;;;;;;6342374;22;20074;-78
2021/01/07 01:45:57;;;;;;;8.23;4.70;;;2.30;99.90;;;;;;6342800;22;20143;-78
2021/01/07 01:48:26;;;;;;;9.15;4.95;;;2.30;99.90;;;;;;6342009;22;20125;-77
2021/01/07 01:50:53;;;;;;;7.90;4.93;;;2.30;99.90;;;;;;6342428;22;20038;-78
2021/01/07 01:53:21;;;;;;;8.77;5.38;;;2.30;99.90;;;;;;6345692;22;20118;-78
2021/01/07 01:55:49;;;;;;;8.35;4.90;;;2.30;99.90;;;;;;6341001;22;20022;-78
2021/01/07 01:58:16;;;;;;;8.48;4.97;;;2.30;99.90;;;;;;6341163;22;20034;-77
2021/01/07 02:00:43;;;;;;;7.90;5.13;;;2.30;99.90;;;;;;6313995;22;20022;-78
2021/01/07 02:03:10;;;;;;;7.95;4.95;;;2.30;99.90;;;;;;6341260;22;20101;-78
2021/01/07 02:05:38;;;;;;;9.35;5.70;;;2.30;99.90;;;;;;6338915;22;20099;-78
2021/01/07 02:08:05;;;;;;;9.45;5.47;;;2.30;99.90;;;;;;6339951;22;20054;-78
2021/01/07 02:10:33;;;;;;;9.07;5.72;;;2.30;99.90;;;;;;6312189;22;20483;-78
2021/01/07 02:13:02;;;;;;;9.23;5.30;;;2.20;99.90;;;;;;6338860;22;20070;-78
2021/01/07 02:15:29;;;;;;;7.90;4.90;;;2.30;99.90;;;;;;6339736;22;20097;-78
2021/01/07 02:17:57;;;;;;;8.40;5.10;;;2.30;99.90;;;;;;6338539;22;20040;-78
2021/01/07 02:20:26;;;;;;;9.13;5.38;;;2.30;99.90;;;;;;6340273;22;20480;-76
2021/01/07 02:22:53;;;;;;;9.20;5.60;;;2.30;99.90;;;;;;6346219;22;20073;-76
2021/01/07 02:25:21;;;;;;;9.75;5.68;;;2.30;99.90;;;;;;6345915;22;20049;-76
2021/01/07 02:27:47;;;;;;;8.57;5.32;;;2.30;99.90;;;;;;6349611;22;20456;-76
2021/01/07 02:30:16;;;;;;;9.15;4.95;;;2.30;99.90;;;;;;6350073;22;20102;-76
2021/01/07 02:32:43;;;;;;;9.23;5.20;;;2.30;99.90;;;;;;6350323;22;20087;-76
2021/01/07 02:35:11;;;;;;;8.07;4.97;;;2.30;99.90;;;;;;6347360;22;20118;-76
2021/01/07 02:37:41;;;;;;;10.05;6.20;;;2.30;99.90;;;;;;6347022;22;20034;-77
2021/01/07 02:40:09;;;;;;;9.75;5.53;;;2.30;99.90;;;;;;6348435;22;20049;-76
2021/01/07 02:42:36;;;;;;;8.38;5.38;;;2.30;99.90;;;;;;6347966;22;20072;-76
2021/01/07 02:45:08;;;;;;;9.43;5.72;;;2.30;99.90;;;;;;6347685;22;20018;-76
2021/01/07 02:47:35;;;;;;;8.85;5.35;;;2.30;99.90;;;;;;6321385;22;20468;-76
2021/01/07 02:50:02;;;;;;;8.98;5.57;;;2.40;99.90;;;;;;6349088;22;20042;-76
2021/01/07 02:52:28;;;;;;;9.07;5.57;;;2.40;99.90;;;;;;6349226;22;20099;-76
2021/01/07 02:54:56;;;;;;;9.52;5.88;;;2.40;99.80;;;;;;6345306;22;20094;-76
2021/01/07 02:57:22;;;;;;;8.80;5.20;;;2.50;99.90;;;;;;6347081;22;20042;-76
2021/01/07 02:59:49;;;;;;;8.93;5.53;;;2.40;99.80;;;;;;6347335;22;20078;-76
2021/01/07 03:02:16;;;;;;;10.35;6.30;;;2.50;99.70;;;;;;6323365;22;20057;-76
2021/01/07 03:04:42;;;;;;;8.80;5.53;;;2.50;99.60;;;;;;6300310;22;20026;-76
2021/01/07 03:07:09;;;;;;;9.80;6.03;;;2.40;99.90;;;;;;6350208;22;20093;-76
2021/01/07 03:09:35;;;;;;;8.70;5.60;;;2.40;99.90;;;;;;6351921;22;20054;-76
2021/01/07 03:12:12;;;;;;;9.77;5.90;;;2.50;99.90;;;;;;6356635;22;20066;-76
2021/01/07 03:14:40;;;;;;;9.23;5.63;;;2.40;99.70;;;;;;6352757;22;20122;-76
2021/01/07 03:17:06;;;;;;;9.10;5.43;;;2.40;99.70;;;;;;6351319;22;20018;-76
2021/01/07 03:19:33;;;;;;;10.63;5.95;;;2.40;99.90;;;;;;6353751;22;20074;-76
2021/01/07 03:22:01;;;;;;;10.52;6.50;;;2.40;99.90;;;;;;6353575;22;20045;-76
2021/01/07 03:24:28;;;;;;;10.70;6.05;;;2.40;99.80;;;;;;6354112;22;20037;-76
2021/01/07 03:26:55;;;;;;;9.52;5.80;;;2.40;99.70;;;;;;6352139;22;20058;-76
2021/01/07 03:29:22;;;;;;;10.57;6.00;;;2.40;99.80;;;;;;6348934;22;20322;-76
2021/01/07 03:31:49;;;;;;;8.85;5.80;;;2.40;99.90;;;;;;6348449;22;20102;-76
2021/01/07 03:34:16;;;;;;;10.02;6.47;;;2.40;99.90;;;;;;6349814;22;20070;-76
2021/01/07 03:36:43;;;;;;;9.65;5.82;;;2.50;99.60;;;;;;6351705;22;20065;-76
2021/01/07 03:39:10;;;;;;;9.80;5.70;;;2.50;99.60;;;;;;6347247;22;20156;-77
2021/01/07 03:41:37;;;;;;;9.70;6.10;;;2.40;99.60;;;;;;6347689;22;20023;-77
2021/01/07 03:44:04;;;;;;;8.98;5.78;;;2.40;99.60;;;;;;6348038;22;20529;-77
2021/01/07 03:46:32;;;;;;;10.25;6.10;;;2.40;99.80;;;;;;6349731;22;20054;-77
2021/01/07 03:48:58;;;;;;;11.15;6.57;;;2.20;99.90;;;;;;6350928;22;20097;-76
2021/01/07 03:51:25;;;;;;;10.52;6.40;;;2.20;99.80;;;;;;6350994;22;20061;-76
2021/01/07 03:53:52;;;;;;;11.10;6.88;;;2.20;99.70;;;;;;6353742;22;20061;-77
2021/01/07 03:56:18;;;;;;;10.50;6.38;;;2.20;99.90;;;;;;6352413;22;20043;-77
2021/01/07 03:58:45;;;;;;;11.27;6.53;;;2.20;99.90;;;;;;6352466;22;20027;-76
2021/01/07 04:01:14;;;;;;;10.38;6.00;;;2.20;99.90;;;;;;6323588;22;20046;-76
2021/01/07 04:03:42;;;;;;;11.23;6.50;;;2.20;99.90;;;;;;6349285;22;20163;-76
2021/01/07 04:06:10;;;;;;;10.80;6.25;;;2.20;99.90;;;;;;6349017;22;20095;-76
2021/01/07 04:08:36;;;;;;;10.88;6.10;;;2.20;99.80;;;;;;6350154;22;20022;-77
2021/01/07 04:11:04;;;;;;;9.15;5.63;;;2.30;99.90;;;;;;6347869;22;20027;-77
2021/01/07 04:13:31;;;;;;;10.60;5.93;;;2.30;99.80;;;;;;6348343;22;20050;-77
2021/01/07 04:15:58;;;;;;;10.85;6.18;;;2.30;99.80;;;;;;6349424;22;20061;-76
2021/01/07 04:18:24;;;;;;;11.00;6.22;;;2.30;99.90;;;;;;6354481;22;20042;-76
2021/01/07 04:20:52;;;;;;;10.18;6.43;;;2.30;99.80;;;;;;6356767;22;20038;-76
2021/01/07 04:23:18;;;;;;;11.23;6.35;;;2.30;99.80;;;;;;6350111;22;20491;-76
2021/01/07 04:25:45;;;;;;;10.57;6.20;;;2.30;99.80;;;;;;6317216;22;20023;-76
2021/01/07 04:28:12;;;;;;;9.80;6.10;;;2.30;99.80;;;;;;6346218;22;20045;-76
2021/01/07 04:30:38;;;;;;;10.55;6.47;;;2.30;99.80;;;;;;6349965;22;20066;-76
2021/01/07 04:33:05;;;;;;;9.40;5.82;;;2.40;99.90;;;;;;6353477;22;20072;-76
2021/01/07 04:35:32;;;;;;;10.20;6.38;;;2.30;99.80;;;;;;6359520;22;20042;-77
2021/01/07 04:37:59;;;;;;;10.27;6.55;;;2.40;99.80;;;;;;6359170;22;20046;-76
2021/01/07 04:40:26;;;;;;;9.70;6.10;;;2.30;99.70;;;;;;6353540;22;20499;-76
2021/01/07 04:42:53;;;;;;;11.27;6.35;;;2.40;99.60;;;;;;6322822;22;20066;-76
2021/01/07 04:45:19;;;;;;;11.63;6.60;;;2.40;99.60;;;;;;6349466;22;20042;-76
2021/01/07 04:47:48;;;;;;;11.57;6.55;;;2.30;99.80;;;;;;6341630;22;20094;-75
2021/01/07 04:50:15;;;;;;;11.13;6.25;;;2.40;99.90;;;;;;6313020;22;20098;-75
2021/01/07 04:52:42;;;;;;;10.63;6.28;;;2.30;99.80;;;;;;6312518;22;20037;-75
2021/01/07 04:55:11;;;;;;;10.85;6.30;;;2.20;99.90;;;;;;6339762;22;20089;-76
2021/01/07 04:57:38;;;;;;;12.27;6.40;;;2.20;99.90;;;;;;6338935;22;20369;-75
2021/01/07 05:00:06;;;;;;;11.75;6.80;;;2.20;99.80;;;;;;6338728;22;20512;-76
2021/01/07 05:02:34;;;;;;;11.25;6.68;;;2.20;99.90;;;;;;6337817;22;20333;-76
2021/01/07 05:05:06;;;;;;;10.32;6.60;;;2.20;99.90;;;;;;6337871;22;20093;-76
2021/01/07 05:07:36;;;;;;;10.85;6.88;;;2.20;99.90;;;;;;6338330;22;20084;-76
2021/01/07 05:10:06;;;;;;;11.15;6.03;;;2.30;99.80;;;;;;6337182;22;20026;-76
2021/01/07 05:12:33;;;;;;;11.32;6.55;;;2.30;99.80;;;;;;6339472;22;20061;-76
2021/01/07 05:15:00;;;;;;;11.82;6.57;;;2.30;99.80;;;;;;6340330;22;20118;-77
2021/01/07 05:17:27;;;;;;;11.07;6.45;;;2.30;99.80;;;;;;6286269;22;20023;-77
2021/01/07 05:19:55;;;;;;;10.60;6.55;;;2.30;99.80;;;;;;6338385;22;20058;-77
2021/01/07 05:22:27;;;;;;;12.10;6.65;;;2.30;99.70;;;;;;6311898;22;20589;-77
2021/01/07 05:24:55;;;;;;;11.27;6.35;;;2.30;99.70;;;;;;6338083;22;20103;-77
2021/01/07 05:27:22;;;;;;;10.63;6.28;;;2.30;99.60;;;;;;6340445;22;20075;-76
2021/01/07 05:29:49;;;;;;;13.02;6.30;;;2.30;99.80;;;;;;6340442;22;20022;-76
2021/01/07 05:32:16;;;;;;;11.18;6.43;;;2.30;99.80;;;;;;6339169;22;20034;-76
2021/01/07 05:34:47;;;;;;;12.05;6.63;;;2.40;99.60;;;;;;6338215;22;20090;-76
2021/01/07 05:37:17;;;;;;;12.07;6.93;;;2.40;99.60;;;;;;6338600;22;20015;-76
2021/01/07 05:39:46;;;;;;;12.02;7.03;;;2.30;99.70;;;;;;6337833;22;20023;-76
2021/01/07 05:42:13;;;;;;;11.90;6.70;;;2.40;99.70;;;;;;6337406;22;20015;-76
2021/01/07 05:44:44;;;;;;;11.95;6.82;;;2.40;99.70;;;;;;6336366;22;20177;-77
2021/01/07 05:47:23;;;;;;;10.90;6.00;;;2.40;99.70;;;;;;6336492;22;20460;-76
2021/01/07 05:49:50;;;;;;;12.45;6.35;;;2.50;99.60;;;;;;6335898;22;20068;-76
2021/01/07 05:52:17;;;;;;;12.80;7.13;;;2.40;99.60;;;;;;6336016;22;20030;-76
2021/01/07 05:54:44;;;;;;;9.15;6.00;;;2.40;99.60;;;;;;6308905;22;20046;-76
2021/01/07 05:57:12;;;;;;;12.10;7.20;;;2.30;99.50;;;;;;6336112;22;20341;-76
2021/01/07 05:59:40;;;;;;;11.48;6.43;;;2.30;99.70;;;;;;6335633;22;20512;-76
2021/01/07 06:02:13;;;;;;;10.88;5.88;;;2.30;99.60;;;;;;6336440;22;20019;-76
2021/01/07 06:04:43;;;;;;;12.80;7.15;;;2.30;99.60;;;;;;6337981;22;20110;-76
2021/01/07 06:07:10;;;;;;;11.05;6.60;;;2.40;99.60;;;;;;6338273;22;20094;-76
2021/01/07 06:09:37;;;;;;;11.20;6.60;;;2.20;99.70;;;;;;6313031;22;20619;-76
2021/01/07 06:12:06;;;;;;;10.40;6.55;;;2.20;99.60;;;;;;6338856;22;20042;-76
2021/01/07 06:14:34;;;;;;;12.50;7.10;;;2.20;99.70;;;;;;6338485;22;20094;-76
2021/01/07 06:17:00;;;;;;;15.18;7.18;;;2.20;99.80;;;;;;6338732;22;20106;-76
2021/01/07 06:19:38;;;;;;;11.75;6.57;;;2.30;99.80;;;;;;6338112;22;20101;-76
2021/01/07 06:22:14;;;;;;;10.15;6.00;;;2.30;99.80;;;;;;6337685;22;20019;-76
2021/01/07 06:24:42;;;;;;;13.00;6.78;;;2.30;99.70;;;;;;6337082;22;20095;-76
2021/01/07 06:27:37;;;;;;;12.52;6.93;;;2.40;99.70;;;;;;6335958;22;20452;-76
2021/01/07 06:30:33;;;;;;;11.77;6.65;;;2.30;99.70;;;;;;6265146;22;20347;-77
2021/01/07 06:33:09;;;;;;;11.88;7.00;;;2.30;99.70;;;;;;6336893;22;20014;-76
2021/01/07 06:35:43;;;;;;;10.90;6.13;;;2.30;99.40;;;;;;6337647;22;20050;-76
2021/01/07 06:38:20;;;;;;;11.82;7.40;;;2.30;99.50;;;;;;6337472;22;20468;-76
2021/01/07 06:40:47;;;;;;;11.65;7.15;;;2.50;99.50;;;;;;6338342;22;20089;-76
2021/01/07 06:43:18;;;;;;;12.27;6.95;;;2.40;99.40;;;;;;6338543;22;20068;-76
2021/01/07 06:45:54;;;;;;;10.10;6.43;;;2.40;99.40;;;;;;6340693;22;20156;-78
2021/01/07 06:48:34;;;;;;;11.50;6.90;;;2.50;99.40;;;;;;6341363;22;20112;-78
2021/01/07 06:51:04;;;;;;;13.63;7.30;;;2.50;99.30;;;;;;6342603;22;20527;-76
2021/01/07 06:53:36;;;;;;;11.70;6.78;;;2.60;99.30;;;;;;6339621;22;20030;-76
2021/01/07 06:56:18;;;;;;;11.93;6.88;;;2.70;99.10;;;;;;6339791;22;20094;-76
2021/01/07 06:58:47;;;;;;;10.52;6.63;;;2.70;98.90;;;;;;6338093;22;20102;-76
2021/01/07 07:01:18;;;;;;;11.30;6.57;;;2.80;98.60;;;;;;6338185;22;20421;-76
2021/01/07 07:03:50;;;;;;;10.65;6.38;;;2.80;98.60;;;;;;6337736;22;20015;-76
2021/01/07 07:06:25;;;;;;;10.55;6.55;;;2.80;98.50;;;;;;6337447;22;20019;-76
2021/01/07 07:08:52;;;;;;;11.18;6.28;;;2.70;98.50;;;;;;6337592;22;20468;-76
2021/01/07 07:11:33;;;;;;;11.98;7.10;;;2.70;98.90;;;;;;6337104;22;20049;-76
2021/01/07 07:14:05;;;;;;;11.32;6.65;;;2.60;98.80;;;;;;6336958;22;20070;-76
2021/01/07 07:16:33;;;;;;;12.55;6.50;;;2.60;98.80;;;;;;6337786;22;20019;-76
2021/01/07 07:18:59;;;;;;;10.93;6.70;;;2.60;99.00;;;;;;6311181;22;20461;-76
2021/01/07 07:21:29;;;;;;;12.65;7.03;;;2.60;99.30;;;;;;6338302;22;20086;-76
2021/01/07 07:24:07;;;;;;;11.80;7.07;;;2.60;99.10;;;;;;6310789;22;20022;-76
2021/01/07 07:26:35;;;;;;;11.60;6.97;;;2.60;99.00;;;;;;6339910;22;20019;-76
2021/01/07 07:29:08;;;;;;;11.25;6.75;;;2.60;98.90;;;;;;6344334;22;20063;-77
2021/01/07 07:31:40;;;;;;;12.45;7.13;;;2.60;99.10;;;;;;6340804;22;20089;-76
2021/01/07 07:34:07;;;;;;;13.40;7.20;;;2.60;99.00;;;;;;6337186;22;20025;-76
2021/01/07 07:36:35;;;;;;;12.02;7.03;;;2.60;99.10;;;;;;6338200;22;20080;-76
2021/01/07 07:39:05;;;;;;;12.93;7.35;;;2.60;99.10;;;;;;6340692;22;20023;-76
2021/01/07 07:41:42;;;;;;;11.23;6.82;;;2.60;99.20;;;;;;6349609;22;20146;-76
2021/01/07 07:44:08;;;;;;;12.60;7.50;;;2.60;99.10;;;;;;6351379;22;20042;-76
2021/01/07 07:46:37;;;;;;;12.25;7.10;;;2.70;99.20;;;;;;6350057;22;20641;-76
2021/01/07 07:49:06;;;;;;;11.70;7.05;;;2.70;99.00;;;;;;6343832;22;20019;-76
2021/01/07 07:51:33;;;;;;;11.82;7.07;;;2.70;99.00;;;;;;6315705;22;20091;-76
2021/01/07 07:54:08;;;;;;;13.00;7.35;;;2.60;99.00;;;;;;6342326;22;20021;-76
2021/01/07 07:56:35;;;;;;;;;;;2.70;99.10;;;;;;6342549;22;20488;-76
2021/01/07 07:59:03;;;;;;;11.65;7.22;;;2.60;99.00;;;;;;6344274;22;19938;-76
2021/01/07 08:01:42;;;;;;;13.65;7.47;;;2.60;98.90;;;;;;6349685;22;20014;-76
2021/01/07 08:04:14;;;;;;;13.32;7.50;;;2.40;99.20;;;;;;6350093;22;20054;-76
2021/01/07 08:06:44;;;;;;;13.07;7.32;;;2.50;99.20;;;;;;6352006;22;20061;-77
2021/01/07 08:09:12;;;;;;;12.38;7.43;;;2.50;98.90;;;;;;6323323;22;20053;-76
2021/01/07 08:11:50;;;;;;;13.18;6.93;;;2.50;99.10;;;;;;6348973;22;20026;-76
2021/01/07 08:14:21;;;;;;;13.15;7.85;;;2.50;99.00;;;;;;6319718;22;20101;-76
2021/01/07 08:16:49;;;;;;;12.95;7.75;;;2.40;98.90;;;;;;6312765;22;20364;-76
2021/01/07 08:19:25;;;;;;;11.98;7.18;;;2.40;99.00;;;;;;6340385;22;20353;-76
2021/01/07 08:21:54;;;;;;;13.00;7.10;;;2.40;99.10;;;;;;6345860;22;20074;-77
2021/01/07 08:24:24;;;;;;;14.13;8.10;;;2.40;99.20;;;;;;6341418;22;20571;-76
2021/01/07 08:27:13;;;;;;;13.10;7.93;;;2.40;99.40;;;;;;6340856;22;20030;-77
2021/01/07 08:29:42;;;;;;;14.32;7.50;;;2.40;99.40;;;;;;6340119;22;20025;-76
2021/01/07 08:32:15;;;;;;;14.07;7.97;;;2.40;99.50;;;;;;6340977;22;20022;-76
2021/01/07 08:34:42;;;;;;;13.50;7.80;;;2.40;99.50;;;;;;6341759;22;20064;-76
2021/01/07 08:37:12;;;;;;;13.95;8.05;;;2.50;99.80;;;;;;6341905;22;20075;-76
2021/01/07 08:39:40;;;;;;;13.85;8.07;;;2.30;99.80;;;;;;6343683;22;20074;-77
2021/01/07 08:42:07;;;;;;;14.10;8.15;;;2.30;99.90;;;;;;6343104;22;20211;-77
2021/01/07 08:44:35;;;;;;;15.63;8.48;;;2.20;99.90;;;;;;6345279;22;20070;-77
2021/01/07 08:47:03;;;;;;;14.70;8.52;;;2.10;99.90;;;;;;6352546;22;20079;-77
2021/01/07 08:49:30;;;;;;;19.95;8.05;;;2.00;99.90;;;;;;6351607;22;20060;-77
2021/01/07 08:52:00;;;;;;;14.77;8.55;;;2.10;99.90;;;;;;6349965;22;20464;-76
2021/01/07 08:54:28;;;;;;;15.77;8.40;;;2.10;99.90;;;;;;6350758;22;20018;-77
2021/01/07 08:56:55;;;;;;;15.05;8.38;;;2.10;99.90;;;;;;6349407;22;20107;-77
2021/01/07 08:59:27;;;;;;;14.05;7.95;;;2.30;99.90;;;;;;6348944;22;20026;-77
2021/01/07 09:01:56;;;;;;;15.57;8.90;;;2.30;99.90;;;;;;6349056;22;20023;-76
2021/01/07 09:04:32;;;;;;;15.45;8.90;;;2.30;99.50;;;;;;6322707;22;20082;-77
2021/01/07 09:07:05;;;;;;;14.65;8.40;;;2.20;99.80;;;;;;6349128;22;20110;-77
2021/01/07 09:09:43;;;;;;;14.32;8.38;;;2.40;99.80;;;;;;6350104;22;20023;-77
2021/01/07 09:12:16;;;;;;;13.80;8.35;;;2.30;99.90;;;;;;6350431;22;20022;-77
2021/01/07 09:14:44;;;;;;;16.38;9.20;;;2.40;99.80;;;;;;6350349;22;20133;-77
2021/01/07 09:17:11;;;;;;;15.60;9.32;;;2.40;99.80;;;;;;6323876;22;20054;-77
2021/01/07 09:19:38;;;;;;;14.35;8.23;;;2.50;99.80;;;;;;6351766;22;20071;-77
2021/01/07 09:22:04;;;;;;;15.40;8.80;;;2.40;99.80;;;;;;6323828;22;20042;-77
2021/01/07 09:24:39;;;;;;;16.67;9.75;;;2.40;99.70;;;;;;6351037;22;20026;-76
2021/01/07 09:27:10;;;;;;;16.50;9.23;;;2.50;99.90;;;;;;6351141;22;20021;-77
2021/01/07 09:29:37;;;;;;;16.88;9.50;;;2.50;99.90;;;;;;6351024;22;20023;-77
2021/01/07 09:32:05;;;;;;;16.92;9.23;;;2.60;99.80;;;;;;6349463;22;20053;-77
2021/01/07 09:34:32;;;;;;;15.05;8.63;;;2.70;99.50;;;;;;6343706;22;20065;-77
2021/01/07 09:37:08;;;;;;;14.23;8.60;;;2.90;99.30;;;;;;6344107;22;20018;-77
2021/01/07 09:39:35;;;;;;;15.80;8.88;;;2.80;99.00;;;;;;6343660;22;20078;-77
2021/01/07 09:42:04;;;;;;;14.98;8.95;;;2.90;99.30;;;;;;6339114;22;20479;-77
2021/01/07 09:44:31;;;;;;;15.07;8.27;;;2.90;99.30;;;;;;6337921;22;20015;-77
2021/01/07 09:46:58;;;;;;;13.90;8.82;;;3.10;99.30;;;;;;6337998;22;20038;-77
2021/01/07 09:49:26;;;;;;;14.45;8.38;;;3.00;98.70;;;;;;6338561;22;20027;-77
2021/01/07 09:51:53;;;;;;;16.48;9.15;;;3.10;98.60;;;;;;6339294;22;20365;-77
2021/01/07 09:54:22;;;;;;;15.75;9.00;;;3.10;98.70;;;;;;6339368;22;20377;-77
2021/01/07 09:56:52;;;;;;;15.05;9.32;;;3.30;98.70;;;;;;6339626;22;20018;-77
2021/01/07 09:59:20;;;;;;;14.43;8.98;;;3.20;98.70;;;;;;6340310;22;20022;-77
2021/01/07 10:01:47;;;;;;;16.00;9.05;;;3.10;98.60;;;;;;6341669;22;20038;-78
2021/01/07 10:04:14;;;;;;;14.52;8.52;;;3.10;98.60;;;;;;6345301;22;20085;-77
2021/01/07 10:06:42;;;;;;;17.88;9.63;;;3.10;98.80;;;;;;6344715;22;20023;-76
2021/01/07 10:09:09;;;;;;;17.05;9.18;;;3.10;98.90;;;;;;6341785;22;20025;-77
2021/01/07 10:11:35;;;;;;;15.55;9.00;;;3.10;98.80;;;;;;6343271;22;20023;-77
2021/01/07 10:14:02;;;;;;;14.40;8.88;;;3.10;98.50;;;;;;6341498;22;20045;-77
2021/01/07 10:16:30;;;;;;;15.82;9.18;;;3.20;98.50;;;;;;6339716;22;20321;-77
2021/01/07 10:18:57;;;;;;;16.92;10.05;;;3.00;98.80;;;;;;6340590;22;20365;-77
2021/01/07 10:21:25;;;;;;;15.82;9.15;;;3.00;98.60;;;;;;6340964;22;20085;-77
2021/01/07 10:23:53;;;;;;;15.90;9.05;;;3.00;98.90;;;;;;6340087;22;20023;-77
2021/01/07 10:26:21;;;;;;;16.90;9.75;;;3.10;98.90;;;;;;6340993;22;20061;-77
2021/01/07 10:28:49;;;;;;;25.88;14.77;;;3.10;98.60;;;;;;6338188;22;20023;-77
2021/01/07 10:31:18;;;;;;;16.67;9.77;;;3.10;98.60;;;;;;6339088;22;20105;-77
2021/01/07 10:33:47;;;;;;;15.95;8.93;;;3.10;98.60;;;;;;6339073;22;20627;-77
2021/01/07 10:36:15;;;;;;;17.55;9.18;;;3.00;98.20;;;;;;6336325;22;20015;-77
2021/01/07 10:38:43;;;;;;;17.90;9.68;;;3.00;98.60;;;;;;6337057;22;20044;-76
2021/01/07 10:41:10;;;;;;;14.80;9.10;;;3.00;98.70;;;;;;6336842;22;20114;-77
2021/01/07 10:43:37;;;;;;;15.20;9.65;;;3.00;98.80;;;;;;6336682;22;20022;-76
2021/01/07 10:46:04;;;;;;;17.98;9.77;;;3.20;98.50;;;;;;6336992;22;20452;-77
2021/01/07 10:48:35;;;;;;;14.02;8.95;;;3.20;98.50;;;;;;6337575;22;20027;-77
2021/01/07 10:51:04;;;;;;;16.63;9.98;;;3.30;98.70;;;;;;6337026;22;20091;-77
2021/01/07 10:54:12;;;;;;;16.83;9.75;;;3.20;98.50;;;;;;6336415;22;20423;-78
2021/01/07 10:57:20;;;;;;;15.73;9.57;;;3.30;98.60;;;;;;6210986;23;20040;-77
2021/01/07 11:00:04;;;;;;;16.85;8.95;;;3.30;98.40;;;;;;6220600;23;20056;-77
2021/01/07 11:03:18;;;;;;;16.33;9.45;;;3.40;98.10;;;;;;6329957;22;20559;-77
2021/01/07 11:05:46;;;;;;;14.98;8.85;;;3.40;97.90;;;;;;6335815;22;20068;-77
2021/01/07 11:08:22;;;;;;;14.93;8.95;;;3.40;97.60;;;;;;6346306;22;20094;-77
2021/01/07 11:10:54;;;;;;;13.93;8.57;;;3.40;97.80;;;;;;6345088;22;20052;-76
2021/01/07 11:13:23;;;;;;;16.50;9.30;;;3.50;97.90;;;;;;6344996;22;20062;-77
2021/01/07 11:15:56;;;;;;;15.35;8.90;;;3.40;97.90;;;;;;6340015;22;20429;-77
2021/01/07 11:18:28;;;;;;;15.00;8.88;;;3.40;97.90;;;;;;6338017;22;20018;-77
2021/01/07 11:21:01;;;;;;;16.42;9.27;;;3.40;97.80;;;;;;6339127;22;20019;-77
2021/01/07 11:23:28;;;;;;;16.73;9.65;;;3.50;98.10;;;;;;6339036;22;20101;-77
2021/01/07 11:25:55;;;;;;;17.63;9.98;;;3.50;98.00;;;;;;6350397;22;20023;-77
2021/01/07 11:28:22;;;;;;;18.23;9.60;;;3.60;97.80;;;;;;6349567;22;20033;-77
2021/01/07 11:30:49;;;;;;;15.52;9.23;;;3.60;97.80;;;;;;6343188;22;20093;-77
2021/01/07 11:33:17;;;;;;;15.10;9.15;;;3.70;97.60;;;;;;6337195;22;20071;-77
2021/01/07 11:35:45;;;;;;;15.40;9.20;;;3.70;97.10;;;;;;6337382;22;20021;-77
2021/01/07 11:38:23;;;;;;;16.48;9.88;;;3.60;97.50;;;;;;6336930;22;20018;-77
2021/01/07 11:40:58;;;;;;;16.30;9.30;;;3.50;97.80;;;;;;6337131;22;20019;-77
2021/01/07 11:43:48;;;;;;;16.48;9.20;;;3.70;97.80;;;;;;6338005;22;20018;-77
2021/01/07 11:46:18;;;;;;;14.45;8.75;;;3.70;97.60;;;;;;6338098;22;20046;-77
2021/01/07 11:48:52;;;;;;;17.13;10.15;;;3.80;97.10;;;;;;6338217;22;20029;-78
2021/01/07 11:51:19;;;;;;;16.30;9.65;;;3.70;97.20;;;;;;6339344;22;20102;-77
2021/01/07 11:53:47;;;;;;;15.80;9.55;;;3.70;97.10;;;;;;6311005;22;20019;-76
2021/01/07 11:56:16;;;;;;;15.85;9.23;;;3.70;97.70;;;;;;6336649;22;20089;-76
2021/01/07 11:58:45;;;;;;;15.32;9.13;;;3.80;97.30;;;;;;6335684;22;20025;-78
2021/01/07 12:01:13;;;;;;;16.38;9.32;;;3.80;97.20;;;;;;6308453;22;20103;-77
2021/01/07 12:03:39;;;;;;;14.73;8.75;;;3.90;97.40;;;;;;6336288;22;20023;-77
2021/01/07 12:06:08;;;;;;;14.95;9.25;;;3.90;97.50;;;;;;6336017;22;20384;-77
2021/01/07 12:09:05;;;;;;;14.93;9.15;;;3.90;97.50;;;;;;6335926;22;20015;-76
2021/01/07 12:11:38;;;;;;;15.60;8.85;;;4.00;97.30;;;;;;6336041;22;20019;-77
2021/01/07 12:14:13;;;;;;;13.95;8.88;;;4.00;97.10;;;;;;6336332;22;20094;-77
2021/01/07 12:16:47;;;;;;;14.57;8.77;;;4.00;96.80;;;;;;6336904;22;20015;-77
2021/01/07 12:19:15;;;;;;;13.88;8.48;;;4.10;96.90;;;;;;6337234;22;20018;-77
2021/01/07 12:21:42;;;;;;;16.67;9.23;;;4.10;96.80;;;;;;6337207;22;20029;-77
2021/01/07 12:24:12;;;;;;;15.10;9.13;;;4.20;97.00;;;;;;6338277;22;20034;-77
2021/01/07 12:26:40;;;;;;;14.90;8.85;;;4.00;96.90;;;;;;6338491;22;20015;-78
2021/01/07 12:29:07;;;;;;;16.52;9.50;;;4.10;97.20;;;;;;6339334;22;20134;-78
2021/01/07 12:31:38;;;;;;;16.65;9.80;;;4.20;96.90;;;;;;6340109;22;20030;-77
2021/01/07 12:34:21;;;;;;;15.50;9.05;;;4.20;96.80;;;;;;6317689;22;20094;-77
2021/01/07 12:37:05;;;;;;;16.15;8.82;;;4.10;96.80;;;;;;6342673;22;20728;-78
2021/01/07 12:39:37;;;;;;;15.95;9.52;;;4.10;96.80;;;;;;6342814;22;20048;-77
2021/01/07 12:42:13;;;;;;;15.00;9.40;;;4.10;96.90;;;;;;6339412;22;20102;-77
2021/01/07 12:44:46;;;;;;;17.48;9.32;;;4.10;96.80;;;;;;6340539;22;20030;-77
2021/01/07 12:47:13;;;;;;;14.77;9.35;;;4.20;96.90;;;;;;6338790;22;20070;-78
2021/01/07 12:49:42;;;;;;;16.30;9.35;;;4.20;96.90;;;;;;6350173;22;20047;-77
2021/01/07 12:52:10;;;;;;;16.52;9.65;;;4.20;96.70;;;;;;6327350;22;20455;-77
2021/01/07 12:54:37;;;;;;;16.88;9.70;;;4.00;97.10;;;;;;6342017;22;20018;-77
2021/01/07 12:57:11;;;;;;;16.65;9.88;;;4.00;97.10;;;;;;6342292;22;20408;-77
2021/01/07 12:59:46;;;;;;;17.77;10.02;;;4.00;97.50;;;;;;6338899;22;20046;-77
2021/01/07 13:02:27;;;;;;;19.33;10.27;;;3.90;98.00;;;;;;6339024;22;20066;-77